PWSweather.com
Personal Weather Stations
Station Observations
KJ4AJP
Beautiful Downtown Gardner, Martin, TN 38237

Beautiful Downtown GardnerMartin, TN 38237

Lat: 36.358, Lon: -88.8994

Elevation: 384.3

Station Type: TP1080WC

http://weather.mambm.com/

High Low Average
Temperature 63.7°F17.6°C 43.9°F6.6°C 56.5°F13.6°C
Dew Point 62.5°F16.9°C 43.6°F6.4°C 55.2°F12.9°C
Winds 8.3 mph 13.4 kmh Calm Calm 3.0 mph WSW4.8 kmh WSW
Wind Gusts 20.6 mph33.2 kmh 0.7 mph1.1 kmh 10.0 mph16.1 kmh
Humidity 99% 82% 95%
Pressure 30.24 in1024.0 mb 29.70 in1005.8 mb -
Precipitation 0.31 in7.9 mm - -
Hour Temp Dew Point Humidity Winds Wind Gusts Pressure Precip Precip Rate Daily Precip Total
12:00 AM 59.2°F15.1°C 58.9°F14.9°C 99% 2.2 mph SE3.5 kmh SE 18.3 mph29.5 kmh 29.72 in1006.4 mb 0.00 in0.0 mm 0.00 in0.0 mm 1.09 in27.7 mm
12:15 AM 59.0°F15.0°C 58.7°F14.8°C 99% 6.0 mph SSE9.7 kmh SSE 15.2 mph24.5 kmh 29.73 in1006.8 mb 0.00 in0.0 mm 0.00 in0.0 mm 1.09 in27.7 mm
12:30 AM 59.0°F15.0°C 58.7°F14.8°C 99% 2.2 mph S3.5 kmh S 8.3 mph13.4 kmh 29.76 in1007.8 mb 0.01 in0.3 mm 0.04 in1.0 mm 1.10 in27.9 mm
12:45 AM 59.2°F15.1°C 58.9°F14.9°C 99% 2.2 mph S3.5 kmh S 10.7 mph17.2 kmh 29.77 in1008.1 mb 0.02 in0.5 mm 0.04 in1.0 mm 1.11 in28.2 mm
01:00 AM 59.0°F15.0°C 58.7°F14.8°C 99% 5.4 mph S8.7 kmh S 13.6 mph21.9 kmh 29.76 in1007.8 mb 0.04 in1.0 mm 0.03 in0.8 mm 0.04 in1.0 mm
01:15 AM 58.8°F14.9°C 58.6°F14.8°C 99% 4.5 mph SE7.2 kmh SE 15.2 mph24.5 kmh 29.73 in1006.8 mb 0.05 in1.3 mm 0.04 in1.0 mm 0.01 in0.3 mm
01:30 AM 58.8°F14.9°C 58.6°F14.8°C 99% 5.4 mph S8.7 kmh S 10.7 mph17.2 kmh 29.75 in1007.5 mb 0.05 in1.3 mm 0.00 in0.0 mm 0.02 in0.5 mm
01:45 AM 58.8°F14.9°C 58.6°F14.8°C 99% 2.2 mph S3.5 kmh S 13.0 mph20.9 kmh 29.75 in1007.5 mb 0.05 in1.3 mm 0.00 in0.0 mm 0.04 in1.0 mm
02:00 AM 58.6°F14.8°C 58.4°F14.7°C 99% 3.1 mph S5.0 kmh S 9.2 mph14.8 kmh 29.76 in1007.8 mb 0.04 in1.0 mm 0.00 in0.0 mm 0.04 in1.0 mm
02:15 AM 58.6°F14.8°C 58.4°F14.7°C 99% 7.6 mph S12.2 kmh S 13.0 mph20.9 kmh 29.74 in1007.1 mb 0.04 in1.0 mm 0.00 in0.0 mm 0.05 in1.3 mm
02:30 AM 58.6°F14.8°C 58.4°F14.7°C 99% 5.4 mph S8.7 kmh S 16.8 mph27.0 kmh 29.74 in1007.1 mb 0.02 in0.5 mm 0.00 in0.0 mm 0.05 in1.3 mm
02:45 AM 58.8°F14.9°C 58.6°F14.8°C 99% 2.2 mph SSW3.5 kmh SSW 9.2 mph14.8 kmh 29.76 in1007.8 mb 0.02 in0.5 mm 0.00 in0.0 mm 0.06 in1.5 mm
03:00 AM 58.8°F14.9°C 58.6°F14.8°C 99% 2.2 mph SSW3.5 kmh SSW 8.3 mph13.4 kmh 29.76 in1007.8 mb 0.04 in1.0 mm 0.03 in0.8 mm 0.07 in1.8 mm
03:15 AM 58.6°F14.8°C 58.4°F14.7°C 99% 5.4 mph S8.7 kmh S 13.0 mph20.9 kmh 29.74 in1007.1 mb 0.04 in1.0 mm 0.00 in0.0 mm 0.08 in2.0 mm
03:30 AM 58.6°F14.8°C 58.4°F14.7°C 99% 2.2 mph SSW3.5 kmh SSW 6.9 mph11.1 kmh 29.74 in1007.1 mb 0.05 in1.3 mm 0.04 in1.0 mm 0.09 in2.3 mm
03:45 AM 58.5°F14.7°C 58.2°F14.6°C 99% 4.5 mph SSE7.2 kmh SSE 9.8 mph15.8 kmh 29.70 in1005.8 mb 0.05 in1.3 mm 0.00 in0.0 mm 0.11 in2.8 mm
04:00 AM 58.5°F14.7°C 58.2°F14.6°C 99% 5.4 mph S8.7 kmh S 13.0 mph20.9 kmh 29.71 in1006.1 mb 0.04 in1.0 mm 0.00 in0.0 mm 0.11 in2.8 mm
04:15 AM 58.5°F14.7°C 58.2°F14.6°C 99% 6.0 mph S9.7 kmh S 15.2 mph24.5 kmh 29.72 in1006.4 mb 0.02 in0.5 mm 0.00 in0.0 mm 0.11 in2.8 mm
04:30 AM 58.5°F14.7°C 58.2°F14.6°C 99% 5.4 mph S8.7 kmh S 13.6 mph21.9 kmh 29.73 in1006.8 mb 0.01 in0.3 mm 0.00 in0.0 mm 0.11 in2.8 mm
04:45 AM 58.6°F14.8°C 58.4°F14.7°C 99% 4.5 mph SSE7.2 kmh SSE 10.7 mph17.2 kmh 29.72 in1006.4 mb 0.01 in0.3 mm 0.00 in0.0 mm 0.12 in3.0 mm
05:00 AM 58.6°F14.8°C 58.4°F14.7°C 99% 4.5 mph S7.2 kmh S 10.7 mph17.2 kmh 29.75 in1007.5 mb 0.01 in0.3 mm 0.00 in0.0 mm 0.12 in3.0 mm
05:15 AM 58.5°F14.7°C 58.2°F14.6°C 99% 6.0 mph S9.7 kmh S 14.5 mph23.3 kmh 29.74 in1007.1 mb 0.02 in0.5 mm 0.04 in1.0 mm 0.13 in3.3 mm
05:30 AM 58.3°F14.6°C 58.0°F14.4°C 99% 1.6 mph SSW2.6 kmh SSW 6.9 mph11.1 kmh 29.75 in1007.5 mb 0.02 in0.5 mm 0.00 in0.0 mm 0.13 in3.3 mm
05:45 AM 58.3°F14.6°C 58.0°F14.4°C 99% 5.4 mph S8.7 kmh S 9.2 mph14.8 kmh 29.76 in1007.8 mb 0.02 in0.5 mm 0.00 in0.0 mm 0.14 in3.6 mm
06:00 AM 58.3°F14.6°C 58.0°F14.4°C 99% 3.1 mph S5.0 kmh S 12.1 mph19.5 kmh 29.76 in1007.8 mb 0.02 in0.5 mm 0.00 in0.0 mm 0.14 in3.6 mm
06:15 AM 58.3°F14.6°C 58.0°F14.4°C 99% 2.2 mph S3.5 kmh S 13.6 mph21.9 kmh 29.75 in1007.5 mb 0.01 in0.3 mm 0.00 in0.0 mm 0.14 in3.6 mm
06:30 AM 58.3°F14.6°C 58.0°F14.4°C 99% 2.2 mph S3.5 kmh S 8.3 mph13.4 kmh 29.75 in1007.5 mb 0.01 in0.3 mm 0.00 in0.0 mm 0.14 in3.6 mm
06:45 AM 58.1°F14.5°C 57.8°F14.3°C 99% 1.6 mph S2.6 kmh S 6.9 mph11.1 kmh 29.77 in1008.1 mb 0.00 in0.0 mm 0.00 in0.0 mm 0.14 in3.6 mm
07:00 AM 57.9°F14.4°C 57.7°F14.3°C 99% 3.8 mph SSW6.1 kmh SSW 9.2 mph14.8 kmh 29.76 in1007.8 mb 0.01 in0.3 mm 0.01 in0.3 mm 0.15 in3.8 mm
07:15 AM 57.9°F14.4°C 57.7°F14.3°C 99% 5.4 mph SW8.7 kmh SW 9.2 mph14.8 kmh 29.79 in1008.8 mb 0.01 in0.3 mm 0.00 in0.0 mm 0.15 in3.8 mm
07:30 AM 58.1°F14.5°C 57.8°F14.3°C 99% 6.9 mph SW11.1 kmh SW 11.4 mph18.3 kmh 29.79 in1008.8 mb 0.02 in0.5 mm 0.04 in1.0 mm 0.17 in4.3 mm
07:45 AM 57.9°F14.4°C 57.7°F14.3°C 99% 3.1 mph SW5.0 kmh SW 11.4 mph18.3 kmh 29.79 in1008.8 mb 0.06 in1.5 mm 0.16 in4.1 mm 0.20 in5.1 mm
08:00 AM 57.9°F14.4°C 57.7°F14.3°C 99% 4.5 mph SSW7.2 kmh SSW 11.4 mph18.3 kmh 29.79 in1008.8 mb 0.06 in1.5 mm 0.00 in0.0 mm 0.21 in5.3 mm
08:15 AM 57.7°F14.3°C 57.5°F14.2°C 99% 3.8 mph SW6.1 kmh SW 9.8 mph15.8 kmh 29.80 in1009.1 mb 0.07 in1.8 mm 0.04 in1.0 mm 0.22 in5.6 mm
08:30 AM 57.6°F14.2°C 57.3°F14.1°C 99% 7.6 mph SSE12.2 kmh SSE 18.3 mph29.5 kmh 29.74 in1007.1 mb 0.06 in1.5 mm 0.00 in0.0 mm 0.22 in5.6 mm
08:45 AM 57.6°F14.2°C 57.3°F14.1°C 99% 7.6 mph S12.2 kmh S 16.8 mph27.0 kmh 29.73 in1006.8 mb 0.02 in0.5 mm 0.00 in0.0 mm 0.22 in5.6 mm
09:00 AM 57.7°F14.3°C 57.5°F14.2°C 99% 7.6 mph S12.2 kmh S 17.4 mph28.0 kmh 29.73 in1006.8 mb 0.01 in0.3 mm 0.00 in0.0 mm 0.22 in5.6 mm
09:15 AM 57.9°F14.4°C 57.7°F14.3°C 99% 3.8 mph S6.1 kmh S 17.4 mph28.0 kmh 29.77 in1008.1 mb 0.00 in0.0 mm 0.00 in0.0 mm 0.22 in5.6 mm
09:30 AM 58.1°F14.5°C 57.8°F14.3°C 99% 8.3 mph W13.4 kmh W 15.2 mph24.5 kmh 29.80 in1009.1 mb 0.00 in0.0 mm 0.00 in0.0 mm 0.22 in5.6 mm
09:45 AM 58.3°F14.6°C 58.0°F14.4°C 99% 5.4 mph SW8.7 kmh SW 13.0 mph20.9 kmh 29.80 in1009.1 mb 0.00 in0.0 mm 0.00 in0.0 mm 0.22 in5.6 mm
10:00 AM 58.6°F14.8°C 58.4°F14.7°C 99% 4.5 mph WSW7.2 kmh WSW 13.0 mph20.9 kmh 29.82 in1009.8 mb 0.00 in0.0 mm 0.00 in0.0 mm 0.22 in5.6 mm
10:15 AM 58.8°F14.9°C 58.6°F14.8°C 99% 4.5 mph WSW7.2 kmh WSW 13.0 mph20.9 kmh 29.82 in1009.8 mb 0.00 in0.0 mm 0.00 in0.0 mm 0.22 in5.6 mm
10:30 AM 59.0°F15.0°C 58.7°F14.8°C 99% 6.0 mph SW9.7 kmh SW 13.0 mph20.9 kmh 29.82 in1009.8 mb 0.01 in0.3 mm 0.04 in1.0 mm 0.24 in6.1 mm
10:45 AM 59.4°F15.2°C 59.1°F15.1°C 99% 4.5 mph SW7.2 kmh SW 14.5 mph23.3 kmh 29.81 in1009.5 mb 0.01 in0.3 mm 0.00 in0.0 mm 0.24 in6.1 mm
11:00 AM 59.4°F15.2°C 59.1°F15.1°C 99% 8.3 mph WSW13.4 kmh WSW 15.2 mph24.5 kmh 29.82 in1009.8 mb 0.01 in0.3 mm 0.00 in0.0 mm 0.24 in6.1 mm
11:15 AM 59.2°F15.1°C 58.9°F14.9°C 99% 6.9 mph SW11.1 kmh SW 11.4 mph18.3 kmh 29.83 in1010.2 mb 0.01 in0.3 mm 0.00 in0.0 mm 0.24 in6.1 mm
11:30 AM 59.0°F15.0°C 58.7°F14.8°C 99% 8.3 mph WSW13.4 kmh WSW 18.3 mph29.5 kmh 29.84 in1010.5 mb 0.00 in0.0 mm 0.00 in0.0 mm 0.24 in6.1 mm
11:45 AM 58.8°F14.9°C 58.6°F14.8°C 99% 5.4 mph W8.7 kmh W 20.6 mph33.2 kmh 29.84 in1010.5 mb 0.02 in0.5 mm 0.08 in2.0 mm 0.26 in6.6 mm
12:00 PM 58.6°F14.8°C 58.4°F14.7°C 99% 3.8 mph W6.1 kmh W 16.8 mph27.0 kmh 29.86 in1011.2 mb 0.07 in1.8 mm 0.07 in1.8 mm 0.31 in7.9 mm
12:15 PM 58.8°F14.9°C 58.6°F14.8°C 99% 2.2 mph W3.5 kmh W 14.5 mph23.3 kmh 29.86 in1011.2 mb 0.07 in1.8 mm 0.00 in0.0 mm 0.31 in7.9 mm
12:30 PM 59.0°F15.0°C 58.7°F14.8°C 99% 2.2 mph NW3.5 kmh NW 10.7 mph17.2 kmh 29.87 in1011.5 mb 0.07 in1.8 mm 0.00 in0.0 mm 0.31 in7.9 mm
12:45 PM 59.7°F15.4°C 59.5°F15.3°C 99% 1.6 mph NW2.6 kmh NW 6.0 mph9.7 kmh 29.87 in1011.5 mb 0.05 in1.3 mm 0.00 in0.0 mm 0.31 in7.9 mm
01:00 PM 61.5°F16.4°C 61.3°F16.3°C 99% 1.6 mph NW2.6 kmh NW 13.0 mph20.9 kmh 29.87 in1011.5 mb 0.00 in0.0 mm 0.00 in0.0 mm 0.31 in7.9 mm
01:15 PM 61.9°F16.6°C 61.6°F16.4°C 99% 2.2 mph NNW3.5 kmh NNW 10.7 mph17.2 kmh 29.88 in1011.9 mb 0.00 in0.0 mm 0.00 in0.0 mm 0.31 in7.9 mm
01:30 PM 62.8°F17.1°C 62.5°F16.9°C 99% 5.4 mph NW8.7 kmh NW 11.4 mph18.3 kmh 29.89 in1012.2 mb 0.00 in0.0 mm 0.00 in0.0 mm 0.31 in7.9 mm
01:45 PM 62.8°F17.1°C 61.3°F16.3°C 95% 3.8 mph NW6.1 kmh NW 10.7 mph17.2 kmh 29.89 in1012.2 mb 0.00 in0.0 mm 0.00 in0.0 mm 0.31 in7.9 mm
02:00 PM 62.8°F17.1°C 60.7°F15.9°C 93% 3.8 mph NNW6.1 kmh NNW 13.6 mph21.9 kmh 29.90 in1012.5 mb 0.00 in0.0 mm 0.00 in0.0 mm 0.31 in7.9 mm
02:15 PM 63.7°F17.6°C 60.7°F15.9°C 90% 5.4 mph NNW8.7 kmh NNW 12.1 mph19.5 kmh 29.90 in1012.5 mb 0.00 in0.0 mm 0.00 in0.0 mm 0.31 in7.9 mm
02:30 PM 63.1°F17.3°C 59.5°F15.3°C 88% 3.1 mph NW5.0 kmh NW 13.6 mph21.9 kmh 29.91 in1012.9 mb 0.00 in0.0 mm 0.00 in0.0 mm 0.31 in7.9 mm
02:45 PM 62.2°F16.8°C 58.3°F14.6°C 87% 6.9 mph NNW11.1 kmh NNW 13.0 mph20.9 kmh 29.92 in1013.2 mb 0.00 in0.0 mm 0.00 in0.0 mm 0.31 in7.9 mm
03:00 PM 61.2°F16.2°C 57.3°F14.1°C 87% 4.5 mph NNW7.2 kmh NNW 13.6 mph21.9 kmh 29.93 in1013.5 mb 0.00 in0.0 mm 0.00 in0.0 mm 0.31 in7.9 mm
03:15 PM 61.2°F16.2°C 57.3°F14.1°C 87% 3.1 mph NNW5.0 kmh NNW 13.0 mph20.9 kmh 29.94 in1013.9 mb 0.00 in0.0 mm 0.00 in0.0 mm 0.31 in7.9 mm
03:30 PM 61.2°F16.2°C 57.6°F14.2°C 88% 5.4 mph NNW8.7 kmh NNW 9.8 mph15.8 kmh 29.96 in1014.6 mb 0.00 in0.0 mm 0.00 in0.0 mm 0.31 in7.9 mm
03:45 PM 61.9°F16.6°C 57.3°F14.1°C 85% 5.4 mph NNW8.7 kmh NNW 15.9 mph25.6 kmh 29.97 in1014.9 mb 0.00 in0.0 mm 0.00 in0.0 mm 0.31 in7.9 mm
04:00 PM 62.1°F16.7°C 57.5°F14.2°C 85% 2.2 mph NNW3.5 kmh NNW 11.4 mph18.3 kmh 29.97 in1014.9 mb 0.00 in0.0 mm 0.00 in0.0 mm 0.31 in7.9 mm
04:15 PM 61.2°F16.2°C 55.6°F13.1°C 82% 3.8 mph NNW6.1 kmh NNW 11.4 mph18.3 kmh 29.98 in1015.2 mb 0.00 in0.0 mm 0.00 in0.0 mm 0.31 in7.9 mm
04:30 PM 60.4°F15.8°C 55.6°F13.1°C 84% 4.5 mph NW7.2 kmh NW 11.4 mph18.3 kmh 29.99 in1015.6 mb 0.00 in0.0 mm 0.00 in0.0 mm 0.31 in7.9 mm
04:45 PM 60.1°F15.6°C 54.9°F12.7°C 83% 4.5 mph NW7.2 kmh NW 11.4 mph18.3 kmh 30.01 in1016.3 mb 0.00 in0.0 mm 0.00 in0.0 mm 0.31 in7.9 mm
05:00 PM 59.4°F15.2°C 54.5°F12.5°C 84% 2.2 mph NNW3.5 kmh NNW 11.4 mph18.3 kmh 30.02 in1016.6 mb 0.00 in0.0 mm 0.00 in0.0 mm 0.31 in7.9 mm
05:15 PM 58.6°F14.8°C 53.8°F12.1°C 84% 6.0 mph NNW9.7 kmh NNW 14.5 mph23.3 kmh 30.04 in1017.3 mb 0.00 in0.0 mm 0.00 in0.0 mm 0.31 in7.9 mm
05:30 PM 58.3°F14.6°C 53.5°F11.9°C 84% 6.0 mph NNW9.7 kmh NNW 14.5 mph23.3 kmh 30.04 in1017.3 mb 0.00 in0.0 mm 0.00 in0.0 mm 0.31 in7.9 mm
05:45 PM 57.9°F14.4°C 53.4°F11.9°C 85% 3.1 mph NNW5.0 kmh NNW 7.6 mph12.2 kmh 30.05 in1017.6 mb 0.00 in0.0 mm 0.00 in0.0 mm 0.31 in7.9 mm
06:00 PM 57.0°F13.9°C 52.6°F11.4°C 85% 3.1 mph NNW5.0 kmh NNW 6.9 mph11.1 kmh 30.06 in1017.9 mb 0.00 in0.0 mm 0.00 in0.0 mm 0.31 in7.9 mm
06:15 PM 56.7°F13.7°C 52.8°F11.6°C 87% 1.6 mph NW2.6 kmh NW 5.4 mph8.7 kmh 30.08 in1018.6 mb 0.00 in0.0 mm 0.00 in0.0 mm 0.31 in7.9 mm
06:30 PM 56.7°F13.7°C 53.2°F11.8°C 88% Calm Calm 3.8 mph6.1 kmh 30.08 in1018.6 mb 0.00 in0.0 mm 0.00 in0.0 mm 0.31 in7.9 mm
06:45 PM 55.6°F13.1°C 52.4°F11.3°C 89% 0.7 mph NW1.1 kmh NW 5.4 mph8.7 kmh 30.09 in1019.0 mb 0.00 in0.0 mm 0.00 in0.0 mm 0.31 in7.9 mm
07:00 PM 54.7°F12.6°C 51.5°F10.8°C 89% 0.7 mph NNW1.1 kmh NNW 6.0 mph9.7 kmh 30.09 in1019.0 mb 0.00 in0.0 mm 0.00 in0.0 mm 0.31 in7.9 mm
07:15 PM 53.6°F12.0°C 50.7°F10.4°C 90% 2.2 mph NNW3.5 kmh NNW 6.0 mph9.7 kmh 30.10 in1019.3 mb 0.00 in0.0 mm 0.00 in0.0 mm 0.31 in7.9 mm
07:30 PM 52.7°F11.5°C 49.9°F9.9°C 90% 0.7 mph NNW1.1 kmh NNW 5.4 mph8.7 kmh 30.11 in1019.6 mb 0.00 in0.0 mm 0.00 in0.0 mm 0.31 in7.9 mm
07:45 PM 52.2°F11.2°C 49.6°F9.8°C 91% 0.7 mph N1.1 kmh N 4.5 mph7.2 kmh 30.12 in1020.0 mb 0.00 in0.0 mm 0.00 in0.0 mm 0.31 in7.9 mm
08:00 PM 51.1°F10.6°C 48.8°F9.3°C 92% 0.7 mph N1.1 kmh N 2.2 mph3.5 kmh 30.14 in1020.7 mb 0.00 in0.0 mm 0.00 in0.0 mm 0.31 in7.9 mm
08:15 PM 50.2°F10.1°C 48.5°F9.2°C 94% 3.1 mph N5.0 kmh N 9.2 mph14.8 kmh 30.14 in1020.7 mb 0.00 in0.0 mm 0.00 in0.0 mm 0.31 in7.9 mm
08:30 PM 50.2°F10.1°C 48.8°F9.3°C 95% 1.6 mph N2.6 kmh N 6.0 mph9.7 kmh 30.14 in1020.7 mb 0.00 in0.0 mm 0.00 in0.0 mm 0.31 in7.9 mm
08:45 PM 50.5°F10.3°C 48.9°F9.4°C 94% 1.6 mph N2.6 kmh N 8.3 mph13.4 kmh 30.15 in1021.0 mb 0.00 in0.0 mm 0.00 in0.0 mm 0.31 in7.9 mm
09:00 PM 50.4°F10.2°C 48.7°F9.3°C 94% 1.6 mph NNW2.6 kmh NNW 6.0 mph9.7 kmh 30.15 in1021.0 mb 0.00 in0.0 mm 0.00 in0.0 mm 0.31 in7.9 mm
09:15 PM 49.6°F9.8°C 48.0°F8.9°C 94% 0.7 mph NNW1.1 kmh NNW 3.8 mph6.1 kmh 30.16 in1021.3 mb 0.00 in0.0 mm 0.00 in0.0 mm 0.31 in7.9 mm
09:30 PM 48.9°F9.4°C 47.3°F8.5°C 94% 0.7 mph NW1.1 kmh NW 3.1 mph5.0 kmh 30.17 in1021.7 mb 0.00 in0.0 mm 0.00 in0.0 mm 0.31 in7.9 mm
09:45 PM 48.6°F9.2°C 47.5°F8.6°C 96% Calm Calm 1.6 mph2.6 kmh 30.18 in1022.0 mb 0.00 in0.0 mm 0.00 in0.0 mm 0.31 in7.9 mm
10:00 PM 48.6°F9.2°C 47.8°F8.8°C 97% Calm Calm 0.7 mph1.1 kmh 30.19 in1022.4 mb 0.00 in0.0 mm 0.00 in0.0 mm 0.31 in7.9 mm
10:15 PM 48.4°F9.1°C 47.6°F8.7°C 97% Calm Calm 3.1 mph5.0 kmh 30.19 in1022.4 mb 0.00 in0.0 mm 0.00 in0.0 mm 0.31 in7.9 mm
10:30 PM 48.0°F8.9°C 47.2°F8.4°C 97% Calm Calm 1.6 mph2.6 kmh 30.20 in1022.7 mb 0.00 in0.0 mm 0.00 in0.0 mm 0.31 in7.9 mm
10:45 PM 47.5°F8.6°C 46.9°F8.3°C 98% 0.7 mph NW1.1 kmh NW 2.2 mph3.5 kmh 30.21 in1023.0 mb 0.00 in0.0 mm 0.00 in0.0 mm 0.31 in7.9 mm
11:00 PM 46.9°F8.3°C 46.4°F8.0°C 98% Calm Calm 1.6 mph2.6 kmh 30.21 in1023.0 mb 0.00 in0.0 mm 0.00 in0.0 mm 0.31 in7.9 mm
11:15 PM 46.6°F8.1°C 46.3°F7.9°C 99% Calm Calm 1.6 mph2.6 kmh 30.22 in1023.4 mb 0.00 in0.0 mm 0.00 in0.0 mm 0.31 in7.9 mm
11:30 PM 45.9°F7.7°C 45.6°F7.6°C 99% Calm Calm 1.6 mph2.6 kmh 30.22 in1023.4 mb 0.00 in0.0 mm 0.00 in0.0 mm 0.31 in7.9 mm
11:45 PM 45.3°F7.4°C 45.1°F7.3°C 99% Calm Calm 3.1 mph5.0 kmh 30.23 in1023.7 mb 0.00 in0.0 mm 0.00 in0.0 mm 0.31 in7.9 mm